createdAt,value
2023-04-27T00:00:17.012Z,11.23
2023-04-27T00:02:44.160Z,11.17
2023-04-27T00:05:12.344Z,11.18
2023-04-27T00:07:39.485Z,11.17
2023-04-27T00:10:07.373Z,11.16
2023-04-27T00:12:34.214Z,11.12
2023-04-27T00:15:01.119Z,11.12
2023-04-27T00:17:28.086Z,11.12
2023-04-27T00:19:54.947Z,11.09
2023-04-27T00:22:21.770Z,11.06
2023-04-27T00:24:48.550Z,11.03
2023-04-27T00:27:15.385Z,11.02
2023-04-27T00:29:43.372Z,10.97
2023-04-27T00:32:11.086Z,10.95
2023-04-27T00:34:38.641Z,10.95
2023-04-27T00:37:05.816Z,10.93
2023-04-27T00:39:34.738Z,10.90
2023-04-27T00:42:01.751Z,10.89
2023-04-27T00:44:28.800Z,10.89
2023-04-27T00:46:55.869Z,10.88
2023-04-27T00:49:24.005Z,10.86
2023-04-27T00:51:50.867Z,10.86
2023-04-27T00:54:21.736Z,10.83
2023-04-27T00:56:49.143Z,10.83
2023-04-27T00:59:20.320Z,10.82
2023-04-27T01:01:47.484Z,10.79
2023-04-27T01:04:14.609Z,10.77
2023-04-27T01:06:41.685Z,10.75
2023-04-27T01:09:09.595Z,10.73
2023-04-27T01:11:36.513Z,10.71
2023-04-27T01:14:04.367Z,10.70
2023-04-27T01:16:32.226Z,10.68
2023-04-27T01:18:59.219Z,10.68
2023-04-27T01:21:26.574Z,10.63
2023-04-27T01:23:53.889Z,10.65
2023-04-27T01:26:20.907Z,10.64
2023-04-27T01:28:47.701Z,10.63
2023-04-27T01:31:15.434Z,10.64
2023-04-27T01:33:42.690Z,10.61
2023-04-27T01:36:09.897Z,10.60
2023-04-27T01:38:36.842Z,10.58
2023-04-27T01:41:05.144Z,10.56
2023-04-27T01:43:32.685Z,10.56
2023-04-27T01:46:07.228Z,10.55
2023-04-27T01:48:34.468Z,10.54
2023-04-27T01:51:01.283Z,10.56
2023-04-27T01:53:28.109Z,10.57
2023-04-27T01:55:55.054Z,10.58
2023-04-27T01:58:21.896Z,10.53
2023-04-27T02:00:48.774Z,10.51
2023-04-27T02:03:15.890Z,10.49
2023-04-27T02:05:43.302Z,10.51
2023-04-27T02:08:10.355Z,10.48
2023-04-27T02:10:37.462Z,10.48
2023-04-27T02:13:04.461Z,10.47
2023-04-27T02:15:31.524Z,10.45
2023-04-27T02:17:59.000Z,10.45
2023-04-27T02:20:26.097Z,10.43
2023-04-27T02:22:53.753Z,10.40
2023-04-27T02:25:20.974Z,10.39
2023-04-27T02:27:47.870Z,10.38
2023-04-27T02:30:15.732Z,10.38
2023-04-27T02:32:43.217Z,10.34
2023-04-27T02:35:12.854Z,10.36
2023-04-27T02:37:39.799Z,10.34
2023-04-27T02:40:08.441Z,10.32
2023-04-27T02:42:36.139Z,10.34
2023-04-27T02:45:03.087Z,10.32
2023-04-27T02:47:30.225Z,10.30
2023-04-27T02:49:57.131Z,10.27
2023-04-27T02:52:24.027Z,10.26
2023-04-27T02:54:51.135Z,10.22
2023-04-27T02:57:18.060Z,10.17
2023-04-27T02:59:45.070Z,10.17
2023-04-27T03:02:11.959Z,10.15
2023-04-27T03:04:39.031Z,10.16
2023-04-27T03:07:06.029Z,10.16
2023-04-27T03:09:32.962Z,10.18
2023-04-27T03:12:00.162Z,10.21
2023-04-27T03:14:27.112Z,10.21
2023-04-27T03:16:56.192Z,10.20
2023-04-27T03:19:23.469Z,10.17
2023-04-27T03:21:50.399Z,10.15
2023-04-27T03:24:17.709Z,10.17
2023-04-27T03:26:44.687Z,10.16
2023-04-27T03:29:11.739Z,10.15
2023-04-27T03:31:38.806Z,10.18
2023-04-27T03:34:05.796Z,10.17
2023-04-27T03:36:32.787Z,10.11
2023-04-27T03:38:59.656Z,10.10
2023-04-27T03:41:26.723Z,10.10
2023-04-27T03:43:53.864Z,10.13
2023-04-27T03:46:20.835Z,10.15
2023-04-27T03:48:47.910Z,10.11
2023-04-27T03:51:15.478Z,10.12
2023-04-27T03:53:42.457Z,10.10
2023-04-27T03:56:09.361Z,10.11
2023-04-27T03:58:36.323Z,10.10
2023-04-27T04:01:03.329Z,10.11
2023-04-27T04:03:30.350Z,10.07
2023-04-27T04:05:57.470Z,10.08
2023-04-27T04:08:24.449Z,10.07
2023-04-27T04:10:51.631Z,10.07
2023-04-27T04:13:18.586Z,10.06
2023-04-27T04:15:45.865Z,10.03
2023-04-27T04:18:12.849Z,10.06
2023-04-27T04:20:39.790Z,10.07
2023-04-27T04:23:07.547Z,10.04
2023-04-27T04:25:34.566Z,10.02
2023-04-27T04:28:01.443Z,10.00
2023-04-27T04:30:29.272Z,10.02
2023-04-27T04:32:56.266Z,10.02
2023-04-27T04:35:23.296Z,9.98
2023-04-27T04:37:50.297Z,10.00
2023-04-27T04:40:17.490Z,10.01
2023-04-27T04:42:44.455Z,9.98
2023-04-27T04:45:11.600Z,9.97
2023-04-27T04:47:39.981Z,9.99
2023-04-27T04:50:07.687Z,9.98
2023-04-27T04:52:34.665Z,9.99
2023-04-27T04:55:01.578Z,10.01
2023-04-27T04:57:28.719Z,10.03
2023-04-27T04:59:55.656Z,10.05
2023-04-27T05:02:22.855Z,10.07
2023-04-27T05:04:52.644Z,10.09
2023-04-27T05:07:24.061Z,10.11
2023-04-27T05:09:51.841Z,10.16
2023-04-27T05:12:18.963Z,10.18
2023-04-27T05:14:45.893Z,10.21
2023-04-27T05:17:12.989Z,10.25
2023-04-27T05:19:40.024Z,10.26
2023-04-27T05:22:06.983Z,10.29
2023-04-27T05:24:34.205Z,10.29
2023-04-27T05:27:02.506Z,10.29
2023-04-27T05:29:29.526Z,10.31
2023-04-27T05:31:56.703Z,10.36
2023-04-27T05:34:23.712Z,10.38
2023-04-27T05:36:50.843Z,10.42
2023-04-27T05:39:17.885Z,10.43
2023-04-27T05:41:45.010Z,10.49
2023-04-27T05:44:12.029Z,10.53
2023-04-27T05:46:39.208Z,10.55
2023-04-27T05:49:06.387Z,10.59
2023-04-27T05:51:34.105Z,10.66
2023-04-27T05:54:02.422Z,10.72
2023-04-27T05:56:29.632Z,10.78
2023-04-27T05:58:56.884Z,10.84
2023-04-27T06:01:24.163Z,10.85
2023-04-27T06:03:51.546Z,10.90
2023-04-27T06:06:18.676Z,10.95
2023-04-27T06:08:46.167Z,10.98
2023-04-27T06:11:13.499Z,11.03
2023-04-27T06:13:40.655Z,11.09
2023-04-27T06:16:08.601Z,11.09
2023-04-27T06:18:35.723Z,11.17
2023-04-27T06:21:02.899Z,11.21
2023-04-27T06:23:30.188Z,11.26
2023-04-27T06:25:57.741Z,11.32
2023-04-27T06:28:25.002Z,11.37
2023-04-27T06:30:52.191Z,11.40
2023-04-27T06:33:19.352Z,11.44
2023-04-27T06:35:47.621Z,11.45
2023-04-27T06:38:14.851Z,11.50
2023-04-27T06:40:42.315Z,11.53
2023-04-27T06:43:11.870Z,11.53
2023-04-27T06:45:38.993Z,11.56
2023-04-27T06:48:06.377Z,11.54
2023-04-27T06:50:33.451Z,11.48
2023-04-27T06:53:00.553Z,11.52
2023-04-27T06:55:27.861Z,11.54
2023-04-27T06:57:54.919Z,11.55
2023-04-27T07:00:22.394Z,11.61
2023-04-27T07:02:49.551Z,11.64
2023-04-27T07:05:16.986Z,11.66
2023-04-27T07:07:44.360Z,11.64
2023-04-27T07:10:11.560Z,11.66
2023-04-27T07:12:39.257Z,11.69
2023-04-27T07:15:07.202Z,11.72
2023-04-27T07:17:34.640Z,11.75
2023-04-27T07:20:02.158Z,11.75
2023-04-27T07:22:29.452Z,11.79
2023-04-27T07:24:56.594Z,11.85
2023-04-27T07:27:23.862Z,11.91
2023-04-27T07:29:51.248Z,11.97
2023-04-27T07:32:18.721Z,11.99
2023-04-27T07:34:53.590Z,12.00
2023-04-27T07:37:22.470Z,12.04
2023-04-27T07:39:52.029Z,12.07
2023-04-27T07:42:19.862Z,12.11
2023-04-27T07:44:47.076Z,12.18
2023-04-27T07:47:14.542Z,12.27
2023-04-27T07:49:42.445Z,12.37
2023-04-27T07:52:09.515Z,12.48
2023-04-27T07:54:37.323Z,12.56
2023-04-27T07:57:13.109Z,12.63
2023-04-27T07:59:40.566Z,12.68
2023-04-27T08:02:19.033Z,12.70
2023-04-27T08:04:48.046Z,12.69
2023-04-27T08:07:17.602Z,12.68
2023-04-27T08:12:30.087Z,12.64
2023-04-27T08:14:59.243Z,12.63
2023-04-27T08:17:30.232Z,12.64
2023-04-27T08:19:57.781Z,12.64
2023-04-27T08:22:27.721Z,12.70
2023-04-27T08:24:55.416Z,12.71
2023-04-27T08:27:28.374Z,12.73
2023-04-27T08:30:15.797Z,12.79
2023-04-27T08:32:57.339Z,12.89
2023-04-27T08:35:32.227Z,12.95
2023-04-27T08:38:31.784Z,13.04
2023-04-27T08:41:25.465Z,13.10
2023-04-27T08:43:53.975Z,13.14
2023-04-27T08:46:22.308Z,13.18
2023-04-27T08:48:51.777Z,13.27
2023-04-27T08:51:19.239Z,13.30
2023-04-27T08:53:49.868Z,13.37
2023-04-27T08:56:38.047Z,13.46
2023-04-27T08:59:14.172Z,13.52
2023-04-27T09:01:46.335Z,13.58
2023-04-27T09:04:14.929Z,13.64
2023-04-27T09:06:49.828Z,13.67
2023-04-27T09:09:33.576Z,13.75
2023-04-27T09:12:02.647Z,13.87
2023-04-27T09:14:31.461Z,13.93
2023-04-27T09:17:00.113Z,13.98
2023-04-27T09:19:29.242Z,14.11
2023-04-27T09:22:05.444Z,14.14
2023-04-27T09:24:32.990Z,14.23
2023-04-27T09:27:01.073Z,14.34
2023-04-27T09:29:40.492Z,14.44
2023-04-27T09:32:17.956Z,14.50
2023-04-27T09:34:45.332Z,14.59
2023-04-27T09:37:26.173Z,14.68
2023-04-27T09:40:21.689Z,14.76
2023-04-27T09:42:49.291Z,14.89
2023-04-27T09:45:16.571Z,14.94
2023-04-27T09:47:45.190Z,15.04
2023-04-27T09:50:14.858Z,15.11
2023-04-27T09:52:44.424Z,15.18
2023-04-27T09:55:14.755Z,15.24
2023-04-27T09:57:51.879Z,15.29
2023-04-27T10:00:26.086Z,15.26
2023-04-27T10:03:03.156Z,15.33
2023-04-27T10:05:37.639Z,15.26
2023-04-27T10:08:07.006Z,15.27
2023-04-27T10:10:43.384Z,15.23
2023-04-27T10:13:21.355Z,15.25
2023-04-27T10:15:50.424Z,15.19
2023-04-27T10:18:28.348Z,15.14
2023-04-27T10:20:55.993Z,15.14
2023-04-27T10:23:25.568Z,15.16
2023-04-27T10:25:54.041Z,15.18
2023-04-27T10:28:22.616Z,15.16
2023-04-27T10:30:57.316Z,15.19
2023-04-27T10:33:24.698Z,15.17
2023-04-27T10:36:01.642Z,15.21
2023-04-27T10:38:31.486Z,15.28
2023-04-27T10:41:02.568Z,15.42
2023-04-27T10:43:31.820Z,15.55
2023-04-27T10:46:12.948Z,15.66
2023-04-27T10:48:41.403Z,15.72
2023-04-27T10:51:12.089Z,15.82
2023-04-27T10:53:39.709Z,15.94
2023-04-27T10:56:16.040Z,16.06
2023-04-27T10:58:48.838Z,16.12
2023-04-27T11:01:33.474Z,16.21
2023-04-27T11:04:03.146Z,16.24
2023-04-27T11:06:31.168Z,16.22
2023-04-27T11:08:58.764Z,16.21
2023-04-27T11:11:27.523Z,16.23
2023-04-27T11:13:57.469Z,16.21
2023-04-27T11:16:33.294Z,16.24
2023-04-27T11:19:35.088Z,16.26
2023-04-27T11:22:07.313Z,16.30
2023-04-27T11:24:46.441Z,16.26
2023-04-27T11:27:14.028Z,16.26
2023-04-27T11:29:42.546Z,16.18
2023-04-27T11:32:19.108Z,16.23
2023-04-27T11:34:57.788Z,16.19
2023-04-27T11:37:36.492Z,16.20
2023-04-27T11:40:17.591Z,16.23
2023-04-27T11:43:03.523Z,16.24
2023-04-27T11:45:31.467Z,16.25
2023-04-27T11:48:17.652Z,16.25
2023-04-27T11:51:01.739Z,16.25
2023-04-27T11:53:38.667Z,16.24
2023-04-27T11:56:13.140Z,16.19
2023-04-27T11:58:42.552Z,16.21
2023-04-27T12:01:11.422Z,16.24
2023-04-27T12:03:39.281Z,16.29
2023-04-27T12:06:31.374Z,16.30
2023-04-27T12:08:59.954Z,16.33
2023-04-27T12:11:33.034Z,16.37
2023-04-27T12:14:01.882Z,16.41
2023-04-27T12:16:32.401Z,16.43
2023-04-27T12:19:00.578Z,16.45
2023-04-27T12:21:28.093Z,16.45
2023-04-27T12:23:55.611Z,16.40
2023-04-27T12:26:29.694Z,16.33
2023-04-27T12:28:57.515Z,16.34
2023-04-27T12:31:27.831Z,16.36
2023-04-27T12:33:55.455Z,16.35
2023-04-27T12:36:25.195Z,16.42
2023-04-27T12:38:53.063Z,16.48
2023-04-27T12:41:20.805Z,16.52
2023-04-27T12:43:49.285Z,16.58
2023-04-27T12:46:39.830Z,16.63
2023-04-27T12:49:08.007Z,16.63
2023-04-27T12:51:36.279Z,16.63
2023-04-27T12:54:04.362Z,16.62
2023-04-27T12:57:04.397Z,16.62
2023-04-27T12:59:31.922Z,16.61
2023-04-27T13:02:06.414Z,16.63
2023-04-27T13:04:34.362Z,16.60
2023-04-27T13:07:02.256Z,16.61
2023-04-27T13:09:30.006Z,16.56
2023-04-27T13:12:00.710Z,16.57
2023-04-27T13:14:29.619Z,16.54
2023-04-27T13:16:57.290Z,16.54
2023-04-27T13:19:24.719Z,16.52
2023-04-27T13:21:52.256Z,16.48
2023-04-27T13:24:19.835Z,16.43
2023-04-27T13:26:48.004Z,16.38
2023-04-27T13:29:15.367Z,16.37
2023-04-27T13:31:45.192Z,16.35
2023-04-27T13:34:13.108Z,16.30
2023-04-27T13:36:41.387Z,16.23
2023-04-27T13:39:09.678Z,16.20
2023-04-27T13:41:37.142Z,16.18
2023-04-27T13:44:04.957Z,16.14
2023-04-27T13:46:36.590Z,16.10
2023-04-27T13:49:04.191Z,16.03
2023-04-27T13:51:33.946Z,15.99
2023-04-27T13:54:02.525Z,15.94
2023-04-27T13:56:36.796Z,15.93
2023-04-27T13:59:04.664Z,15.88
2023-04-27T14:01:32.151Z,15.81
2023-04-27T14:04:00.512Z,15.78
2023-04-27T14:06:30.629Z,15.76
2023-04-27T14:08:58.333Z,15.75
2023-04-27T14:11:27.057Z,15.75
2023-04-27T14:13:54.480Z,15.73
2023-04-27T14:16:25.882Z,15.70
2023-04-27T14:18:54.022Z,15.64
2023-04-27T14:21:21.941Z,15.60
2023-04-27T14:23:49.207Z,15.52
2023-04-27T14:26:25.609Z,15.43
2023-04-27T14:28:52.963Z,15.33
2023-04-27T14:31:20.283Z,15.23
2023-04-27T14:33:48.560Z,15.18
2023-04-27T14:36:16.243Z,15.13
2023-04-27T14:38:43.700Z,15.05
2023-04-27T14:41:11.045Z,14.94
2023-04-27T14:43:38.628Z,14.87
2023-04-27T14:46:21.180Z,14.79
2023-04-27T14:48:49.589Z,14.72
2023-04-27T14:51:18.473Z,14.66
2023-04-27T14:53:46.080Z,14.62
2023-04-27T14:56:16.832Z,14.55
2023-04-27T14:58:44.479Z,14.49
2023-04-27T15:01:12.213Z,14.45
2023-04-27T15:03:39.827Z,14.43
2023-04-27T15:06:16.380Z,14.40
2023-04-27T15:08:44.147Z,14.42
2023-04-27T15:11:11.754Z,14.40
2023-04-27T15:13:39.083Z,14.44
2023-04-27T15:16:26.194Z,14.45
2023-04-27T15:18:55.649Z,14.48
2023-04-27T15:21:23.237Z,14.47
2023-04-27T15:23:51.227Z,14.47
2023-04-27T15:26:33.181Z,14.55
2023-04-27T15:29:01.382Z,14.61
2023-04-27T15:31:29.951Z,14.62
2023-04-27T15:33:58.111Z,14.64
2023-04-27T15:36:29.172Z,14.65
2023-04-27T15:38:56.913Z,14.65
2023-04-27T15:41:24.399Z,14.61
2023-04-27T15:43:52.270Z,14.59
2023-04-27T15:46:20.205Z,14.60
2023-04-27T15:48:47.914Z,14.60
2023-04-27T15:51:17.232Z,14.53
2023-04-27T15:53:44.820Z,14.47
2023-04-27T15:56:31.706Z,14.44
2023-04-27T15:58:59.223Z,14.39
2023-04-27T16:01:27.150Z,14.36
2023-04-27T16:03:54.796Z,14.31
2023-04-27T16:06:41.832Z,14.30
2023-04-27T16:09:11.538Z,14.26
2023-04-27T16:11:39.815Z,14.21
2023-04-27T16:14:07.851Z,14.10
2023-04-27T16:16:35.474Z,14.08
2023-04-27T16:19:03.132Z,14.08
2023-04-27T16:21:31.314Z,14.02
2023-04-27T16:23:58.851Z,13.99
2023-04-27T16:26:27.830Z,13.94
2023-04-27T16:28:58.735Z,13.93
2023-04-27T16:31:35.759Z,13.90
2023-04-27T16:34:04.077Z,13.82
2023-04-27T16:36:42.851Z,13.76
2023-04-27T16:39:11.998Z,13.67
2023-04-27T16:41:39.625Z,13.66
2023-04-27T16:44:07.478Z,13.64
2023-04-27T16:46:41.765Z,13.59
2023-04-27T16:52:07.320Z,13.56
2023-04-27T16:55:11.347Z,13.56
2023-04-27T16:58:03.940Z,13.51
2023-04-27T17:00:33.258Z,13.49
2023-04-27T17:06:21.023Z,13.40
2023-04-27T17:08:51.392Z,13.28
2023-04-27T17:11:20.275Z,13.23
2023-04-27T17:13:50.958Z,13.21
2023-04-27T17:16:23.596Z,13.22
2023-04-27T17:18:53.411Z,13.18
2023-04-27T17:21:23.469Z,13.16
2023-04-27T17:23:52.446Z,13.10
2023-04-27T17:26:23.081Z,13.05
2023-04-27T17:29:01.240Z,12.96
2023-04-27T17:31:29.080Z,12.92
2023-04-27T17:33:56.995Z,12.90
2023-04-27T17:36:25.056Z,12.88
2023-04-27T17:38:52.996Z,12.86
2023-04-27T17:41:21.368Z,12.75
2023-04-27T17:43:50.683Z,12.75
2023-04-27T17:46:21.123Z,12.76
2023-04-27T17:48:48.851Z,12.75
2023-04-27T17:51:16.680Z,12.78
2023-04-27T17:53:44.864Z,12.76
2023-04-27T17:56:15.035Z,12.77
2023-04-27T17:58:42.621Z,12.72
2023-04-27T18:01:12.348Z,12.66
2023-04-27T18:03:40.237Z,12.63
2023-04-27T18:06:07.969Z,12.62
2023-04-27T18:08:35.070Z,12.62
2023-04-27T18:11:02.326Z,12.64
2023-04-27T18:13:30.069Z,12.61
2023-04-27T18:15:59.313Z,12.54
2023-04-27T18:18:27.537Z,12.51
2023-04-27T18:20:54.897Z,12.47
2023-04-27T18:23:22.337Z,12.44
2023-04-27T18:25:49.801Z,12.45
2023-04-27T18:28:17.370Z,12.40
2023-04-27T18:30:44.586Z,12.44
2023-04-27T18:33:12.073Z,12.50
2023-04-27T18:35:39.804Z,12.52
2023-04-27T18:38:06.976Z,12.49
2023-04-27T18:40:36.795Z,12.49
2023-04-27T18:43:04.183Z,12.51
2023-04-27T18:45:31.681Z,12.53
2023-04-27T18:47:59.246Z,12.54
2023-04-27T18:50:26.359Z,12.55
2023-04-27T18:52:53.608Z,12.57
2023-04-27T18:55:20.757Z,12.57
2023-04-27T18:57:48.001Z,12.59
2023-04-27T19:00:15.685Z,12.57
2023-04-27T19:02:42.814Z,12.61
2023-04-27T19:05:13.531Z,12.59
2023-04-27T19:07:41.210Z,12.64
2023-04-27T19:10:09.298Z,12.64
2023-04-27T19:12:36.561Z,12.65
2023-04-27T19:15:04.331Z,12.62
2023-04-27T19:17:32.065Z,12.61
2023-04-27T19:19:59.561Z,12.63
2023-04-27T19:22:28.329Z,12.64
2023-04-27T19:24:55.554Z,12.62
2023-04-27T19:27:23.044Z,12.59
2023-04-27T19:29:50.888Z,12.63
2023-04-27T19:32:18.466Z,12.61
2023-04-27T19:34:46.152Z,12.57
2023-04-27T19:37:13.980Z,12.60
2023-04-27T19:39:41.373Z,12.63
2023-04-27T19:42:08.521Z,12.66
2023-04-27T19:44:35.681Z,12.66
2023-04-27T19:47:02.964Z,12.65
2023-04-27T19:49:33.190Z,12.66
2023-04-27T19:52:01.085Z,12.62
2023-04-27T19:54:28.174Z,12.58
2023-04-27T19:56:55.443Z,12.58
2023-04-27T19:59:22.729Z,12.55
2023-04-27T20:01:49.930Z,12.50
2023-04-27T20:04:18.921Z,12.49
2023-04-27T20:06:46.971Z,12.47
2023-04-27T20:09:14.094Z,12.48
2023-04-27T20:11:41.223Z,12.42
2023-04-27T20:14:08.229Z,12.40
2023-04-27T20:16:35.621Z,12.45
2023-04-27T20:19:02.840Z,12.46
2023-04-27T20:21:29.968Z,12.47
2023-04-27T20:23:59.713Z,12.41
2023-04-27T20:26:26.804Z,12.44
2023-04-27T20:28:54.232Z,12.44
2023-04-27T20:31:21.515Z,12.47
2023-04-27T20:33:48.779Z,12.52
2023-04-27T20:36:18.325Z,12.53
2023-04-27T20:38:46.289Z,12.53
2023-04-27T20:41:13.505Z,12.56
2023-04-27T20:43:40.789Z,12.57
2023-04-27T20:46:08.388Z,12.56
2023-04-27T20:48:35.534Z,12.57
2023-04-27T20:51:02.882Z,12.58
2023-04-27T20:53:30.149Z,12.60
2023-04-27T20:55:57.424Z,12.61
2023-04-27T20:58:24.534Z,12.64
2023-04-27T21:00:51.921Z,12.63
2023-04-27T21:03:19.301Z,12.61
2023-04-27T21:05:47.019Z,12.62
2023-04-27T21:08:14.271Z,12.63
2023-04-27T21:10:41.552Z,12.64
2023-04-27T21:13:08.647Z,12.67
2023-04-27T21:15:35.885Z,12.68
2023-04-27T21:18:11.325Z,12.72
2023-04-27T21:20:46.370Z,12.76
2023-04-27T21:23:15.612Z,12.79
2023-04-27T21:25:44.856Z,12.78
2023-04-27T21:28:12.151Z,12.79
2023-04-27T21:30:39.414Z,12.79
2023-04-27T21:33:06.822Z,12.81
2023-04-27T21:35:34.115Z,12.79
2023-04-27T21:38:01.678Z,12.80
2023-04-27T21:40:28.870Z,12.81
2023-04-27T21:42:56.244Z,12.84
2023-04-27T21:45:23.861Z,12.87
2023-04-27T21:47:51.034Z,12.88
2023-04-27T21:50:18.644Z,12.86
2023-04-27T21:52:45.832Z,12.88
2023-04-27T21:55:12.998Z,12.86
2023-04-27T21:57:40.159Z,12.87
2023-04-27T22:00:13.889Z,12.86
2023-04-27T22:02:43.081Z,12.86
2023-04-27T22:05:10.516Z,12.89
2023-04-27T22:07:37.819Z,12.90
2023-04-27T22:10:05.707Z,12.93
2023-04-27T22:12:33.095Z,12.95
2023-04-27T22:15:00.629Z,12.93
2023-04-27T22:17:29.438Z,12.98
2023-04-27T22:19:57.464Z,13.00
2023-04-27T22:22:24.742Z,12.98
2023-04-27T22:24:51.834Z,13.01
2023-04-27T22:27:18.880Z,13.04
2023-04-27T22:29:45.998Z,13.05
2023-04-27T22:32:13.116Z,13.06
2023-04-27T22:34:40.408Z,13.08
2023-04-27T22:37:07.472Z,13.10
2023-04-27T22:39:34.969Z,13.10
2023-04-27T22:42:02.084Z,13.12
2023-04-27T22:44:29.122Z,13.13
2023-04-27T22:46:56.809Z,13.12
2023-04-27T22:49:24.564Z,13.12
2023-04-27T22:51:51.869Z,13.15
2023-04-27T22:54:18.864Z,13.17
2023-04-27T22:56:46.233Z,13.17
2023-04-27T22:59:13.759Z,13.16
2023-04-27T23:01:40.695Z,13.19
2023-04-27T23:04:09.433Z,13.20
2023-04-27T23:06:36.724Z,13.22
2023-04-27T23:09:03.726Z,13.24
2023-04-27T23:11:30.649Z,13.25
2023-04-27T23:13:57.914Z,13.25
2023-04-27T23:16:26.135Z,13.25
2023-04-27T23:18:53.278Z,13.28
2023-04-27T23:21:20.227Z,13.29
2023-04-27T23:23:47.137Z,13.31
2023-04-27T23:26:14.936Z,13.31
2023-04-27T23:28:42.038Z,13.34
2023-04-27T23:31:09.241Z,13.37
2023-04-27T23:33:36.228Z,13.36
2023-04-27T23:36:04.055Z,13.36
2023-04-27T23:38:31.170Z,13.37
2023-04-27T23:40:58.376Z,13.37
2023-04-27T23:43:25.350Z,13.39
2023-04-27T23:45:53.132Z,13.40
2023-04-27T23:48:20.345Z,13.42
2023-04-27T23:50:47.328Z,13.45
2023-04-27T23:53:14.291Z,13.47
2023-04-27T23:55:41.256Z,13.48
2023-04-27T23:58:08.208Z,13.50
